Asahi Maru — JL6613 — position and weather

sailwx.info

Track history (hours):
 
Tides and Currents Weather Stations Pressure Air Temp Water Temp Dewpoint Dewpoint Depression Visibility Wind Speed Wind Dir Waves Ship Positions

Asahi Maru

Last reported at 2018-Jan-18 17:49 UTC. Time now 2018-Jan-23 00:15 UTC.
Position N 41°25' E 141°35'.

Length 105 m; draft 5.4 m.

Type: Tanker. MMSI: 431501701.

Date/timePositionNaut miles runAvg speedWind from/ knotsBaromVisibWave heightAir tempDewpointWater temp
2018-Jan-18 17:49N 41°25' E 141°35'  
2018-Jan-11 14:57N 41°21' E 140°22'6 8.9
2018-Jan-11 14:15N 41°25' E 140°29'310.3
2018-Jan-11 14:00N 41°26' E 140°32'510.5
2018-Jan-11 13:30N 41°29' E 140°38'510.3
2018-Jan-11 13:01N 41°32' E 140°43'510.3
2018-Jan-11 12:30N 41°35' E 140°49'4 8.3
2018-Jan-11 12:00N 41°37' E 140°54'5 9.0
2018-Jan-11 11:30N 41°39' E 140°60'5 9.8
2018-Jan-11 11:00N 41°41' E 141°05'612.3
2018-Jan-11 10:30N 41°44' E 141°13'611.9
2018-Jan-11 09:58N 41°50' E 141°16'3 0.2
2018-Jan-10 19:16N 41°53' E 141°13'414.7
2018-Jan-10 18:58N 41°49' E 141°15'714.2
2018-Jan-10 18:30N 41°43' E 141°10'815.8
2018-Jan-10 18:00N 41°39' E 141°01'817.0
2018-Jan-10 17:31N 41°35' E 140°51'816.4
2018-Jan-10 17:00N 41°28' E 140°45'714.9
2018-Jan-10 16:31N 41°21' E 140°44'714.3
2018-Jan-10 16:00N 41°13' E 140°43'814.8
2018-Jan-10 15:28N 41°06' E 140°44'714.5
2018-Jan-10 15:00N 40°59' E 140°45'4 2.4
2018-Jan-10 13:31N 40°55' E 140°46'0 0.1
2018-Jan-10 13:27N 40°55' E 140°46'0 0.0
2018-Jan-10 12:40N 40°55' E 140°46'0 0.0
2018-Jan-10 12:08N 40°55' E 140°46'0 0.0
2018-Jan-10 11:47N 40°55' E 140°46'0 0.0
2018-Jan-10 11:24N 40°55' E 140°46'0 0.0
2018-Jan-10 10:17N 40°55' E 140°46'0 0.0
2018-Jan-10 09:59N 40°55' E 140°46'0 0.0
2018-Jan-10 09:29N 40°55' E 140°46'0 0.0
2018-Jan-10 08:52N 40°55' E 140°46'0 0.0
2018-Jan-10 07:24N 40°55' E 140°46'0 0.1
2018-Jan-10 06:54N 40°55' E 140°46'0 0.0
2018-Jan-10 06:24N 40°55' E 140°46'0 0.0
2018-Jan-10 04:42N 40°55' E 140°46'0 0.1
2018-Jan-10 04:18N 40°55' E 140°46'0 0.0
2018-Jan-10 03:54N 40°55' E 140°46'0 0.0
2018-Jan-10 03:18N 40°55' E 140°46'0 0.0
2018-Jan-10 02:45N 40°55' E 140°46'0 0.0
2018-Jan-10 02:27N 40°55' E 140°46'0 0.0
2018-Jan-10 01:57N 40°55' E 140°46'0 0.0
2018-Jan-10 01:26N 40°55' E 140°46'0 0.0
2018-Jan-09 23:37N 40°55' E 140°46'0 0.0
2018-Jan-09 23:22N 40°55' E 140°46'0 0.0
2018-Jan-09 23:00N 40°55' E 140°46'0 0.0
2018-Jan-09 22:30N 40°55' E 140°46'0 0.0
2018-Jan-09 21:53N 40°55' E 140°46'0 0.0
2018-Jan-09 21:10N 40°55' E 140°46'0 0.1
2018-Jan-09 20:59N 40°55' E 140°46'0 0.0
2018-Jan-09 20:12N 40°55' E 140°46'0 0.1
2018-Jan-09 19:56N 40°55' E 140°46'0 0.0
2018-Jan-09 19:16N 40°55' E 140°46'0 0.0
2018-Jan-09 18:00N 40°55' E 140°46'0 0.0
2018-Jan-09 17:30N 40°55' E 140°46'0 0.0
2018-Jan-09 16:22N 40°55' E 140°46'0 0.0
2018-Jan-09 15:46N 40°55' E 140°46'0 0.0
2018-Jan-09 14:23N 40°55' E 140°46'0 0.1
2018-Jan-09 07:08N 40°55' E 140°46'2 9.7
2018-Jan-09 06:58N 40°53' E 140°46'3 1.2
2018-Jan-09 04:17N 40°50' E 140°44'1 0.2
2018-Jan-08 22:53N 40°51' E 140°45'3 7.8
2018-Jan-08 22:29N 40°54' E 140°45'710.8
2018-Jan-08 21:52N 41°01' E 140°44'410.6
2018-Jan-08 21:28N 41°05' E 140°44'2 4.7
2018-Jan-08 20:59N 41°07' E 140°44'510.8
2018-Jan-08 20:30N 41°02' E 140°45'510.8
2018-Jan-08 20:00N 40°57' E 140°45'5 9.0
2018-Jan-08 19:27N 41°02' E 140°44'712.5
2018-Jan-08 18:52N 41°09' E 140°43'613.4
2018-Jan-08 18:27N 41°15' E 140°43'614.0
2018-Jan-08 18:01N 41°21' E 140°45'  
Track history (hours):
 
Tides and Currents Weather Stations Pressure Air Temp Water Temp Dewpoint Dewpoint Depression Visibility Wind Speed Wind Dir Waves Ship Positions

Asahi Maru

Last reported at 2018-Jan-18 17:49 UTC. Time now 2018-Jan-23 00:15 UTC.
Position N 41°25' E 141°35'.

Length 105 m; draft 5.4 m.

Type: Tanker. MMSI: 431501701.

Date/timePositionNaut miles runAvg speedWind from/ knotsBaromVisibWave heightAir tempDewpointWater temp
2018-Jan-18 17:49N 41°25' E 141°35'  
2018-Jan-11 14:57N 41°21' E 140°22'6 8.9
2018-Jan-11 14:15N 41°25' E 140°29'310.3
2018-Jan-11 14:00N 41°26' E 140°32'510.5
2018-Jan-11 13:30N 41°29' E 140°38'510.3
2018-Jan-11 13:01N 41°32' E 140°43'510.3
2018-Jan-11 12:30N 41°35' E 140°49'4 8.3
2018-Jan-11 12:00N 41°37' E 140°54'5 9.0
2018-Jan-11 11:30N 41°39' E 140°60'5 9.8
2018-Jan-11 11:00N 41°41' E 141°05'612.3
2018-Jan-11 10:30N 41°44' E 141°13'611.9
2018-Jan-11 09:58N 41°50' E 141°16'3 0.2
2018-Jan-10 19:16N 41°53' E 141°13'414.7
2018-Jan-10 18:58N 41°49' E 141°15'714.2
2018-Jan-10 18:30N 41°43' E 141°10'815.8
2018-Jan-10 18:00N 41°39' E 141°01'817.0
2018-Jan-10 17:31N 41°35' E 140°51'816.4
2018-Jan-10 17:00N 41°28' E 140°45'714.9
2018-Jan-10 16:31N 41°21' E 140°44'714.3
2018-Jan-10 16:00N 41°13' E 140°43'814.8
2018-Jan-10 15:28N 41°06' E 140°44'714.5
2018-Jan-10 15:00N 40°59' E 140°45'4 2.4
2018-Jan-10 13:31N 40°55' E 140°46'0 0.1
2018-Jan-10 13:27N 40°55' E 140°46'0 0.0
2018-Jan-10 12:40N 40°55' E 140°46'0 0.0
2018-Jan-10 12:08N 40°55' E 140°46'0 0.0
2018-Jan-10 11:47N 40°55' E 140°46'0 0.0
2018-Jan-10 11:24N 40°55' E 140°46'0 0.0
2018-Jan-10 10:17N 40°55' E 140°46'0 0.0
2018-Jan-10 09:59N 40°55' E 140°46'0 0.0
2018-Jan-10 09:29N 40°55' E 140°46'0 0.0
2018-Jan-10 08:52N 40°55' E 140°46'0 0.0
2018-Jan-10 07:24N 40°55' E 140°46'0 0.1
2018-Jan-10 06:54N 40°55' E 140°46'0 0.0
2018-Jan-10 06:24N 40°55' E 140°46'0 0.0
2018-Jan-10 04:42N 40°55' E 140°46'0 0.1
2018-Jan-10 04:18N 40°55' E 140°46'0 0.0
2018-Jan-10 03:54N 40°55' E 140°46'0 0.0
2018-Jan-10 03:18N 40°55' E 140°46'0 0.0
2018-Jan-10 02:45N 40°55' E 140°46'0 0.0
2018-Jan-10 02:27N 40°55' E 140°46'0 0.0
2018-Jan-10 01:57N 40°55' E 140°46'0 0.0
2018-Jan-10 01:26N 40°55' E 140°46'0 0.0
2018-Jan-09 23:37N 40°55' E 140°46'0 0.0
2018-Jan-09 23:22N 40°55' E 140°46'0 0.0
2018-Jan-09 23:00N 40°55' E 140°46'0 0.0
2018-Jan-09 22:30N 40°55' E 140°46'0 0.0
2018-Jan-09 21:53N 40°55' E 140°46'0 0.0
2018-Jan-09 21:10N 40°55' E 140°46'0 0.1
2018-Jan-09 20:59N 40°55' E 140°46'0 0.0
2018-Jan-09 20:12N 40°55' E 140°46'0 0.1
2018-Jan-09 19:56N 40°55' E 140°46'0 0.0
2018-Jan-09 19:16N 40°55' E 140°46'0 0.0
2018-Jan-09 18:00N 40°55' E 140°46'0 0.0
2018-Jan-09 17:30N 40°55' E 140°46'0 0.0
2018-Jan-09 16:22N 40°55' E 140°46'0 0.0
2018-Jan-09 15:46N 40°55' E 140°46'0 0.0
2018-Jan-09 14:23N 40°55' E 140°46'0 0.1
2018-Jan-09 07:08N 40°55' E 140°46'2 9.7
2018-Jan-09 06:58N 40°53' E 140°46'3 1.2
2018-Jan-09 04:17N 40°50' E 140°44'1 0.2
2018-Jan-08 22:53N 40°51' E 140°45'3 7.8
2018-Jan-08 22:29N 40°54' E 140°45'710.8
2018-Jan-08 21:52N 41°01' E 140°44'410.6
2018-Jan-08 21:28N 41°05' E 140°44'2 4.7
2018-Jan-08 20:59N 41°07' E 140°44'510.8
2018-Jan-08 20:30N 41°02' E 140°45'510.8
2018-Jan-08 20:00N 40°57' E 140°45'5 9.0
2018-Jan-08 19:27N 41°02' E 140°44'712.5
2018-Jan-08 18:52N 41°09' E 140°43'613.4
2018-Jan-08 18:27N 41°15' E 140°43'614.0
2018-Jan-08 18:01N 41°21' E 140°45'  

Dump ship's entire track history